createdAt,value
2018-12-23T00:00:21.145Z,8.24
2018-12-23T00:05:40.436Z,8.26
2018-12-23T00:10:59.760Z,8.21
2018-12-23T00:16:19.389Z,8.22
2018-12-23T00:21:39.002Z,8.25
2018-12-23T00:26:57.830Z,8.25
2018-12-23T00:32:16.346Z,8.19
2018-12-23T00:37:35.203Z,8.16
2018-12-23T00:42:54.367Z,8.06
2018-12-23T00:48:13.075Z,8.07
2018-12-23T00:53:31.797Z,7.97
2018-12-23T00:58:50.447Z,7.91
2018-12-23T01:04:09.597Z,7.84
2018-12-23T01:09:28.670Z,7.79
2018-12-23T01:14:48.179Z,7.79
2018-12-23T01:20:07.465Z,7.74
2018-12-23T01:25:26.956Z,7.69
2018-12-23T01:30:46.678Z,7.60
2018-12-23T01:36:05.232Z,7.36
2018-12-23T01:41:23.945Z,7.17
2018-12-23T01:46:43.099Z,7.00
2018-12-23T01:52:02.432Z,6.88
2018-12-23T01:57:21.341Z,6.81
2018-12-23T02:02:43.058Z,6.72
2018-12-23T02:08:01.477Z,6.64
2018-12-23T02:13:22.944Z,6.57
2018-12-23T02:18:42.026Z,6.57
2018-12-23T02:24:01.953Z,6.59
2018-12-23T02:29:20.463Z,6.59
2018-12-23T02:34:40.482Z,6.66
2018-12-23T02:40:00.155Z,6.69
2018-12-23T02:45:20.108Z,6.67
2018-12-23T02:50:38.681Z,6.69
2018-12-23T02:55:57.885Z,6.74
2018-12-23T03:01:16.672Z,6.88
2018-12-23T03:06:36.035Z,6.94
2018-12-23T03:11:55.091Z,7.03
2018-12-23T03:17:14.369Z,7.13
2018-12-23T03:22:34.101Z,7.20
2018-12-23T03:27:52.694Z,7.26
2018-12-23T03:33:10.841Z,7.29
2018-12-23T03:38:29.843Z,7.22
2018-12-23T03:43:49.028Z,7.13
2018-12-23T03:49:08.114Z,7.19
2018-12-23T03:54:26.947Z,7.09
2018-12-23T03:59:46.060Z,7.14
2018-12-23T04:05:05.245Z,7.07
2018-12-23T04:10:24.924Z,7.20
2018-12-23T04:15:43.441Z,7.30
2018-12-23T04:21:02.597Z,7.29
2018-12-23T04:26:21.394Z,7.34
2018-12-23T04:31:40.060Z,7.27
2018-12-23T04:36:59.116Z,7.33
2018-12-23T04:42:18.129Z,7.34
2018-12-23T04:47:36.641Z,7.38
2018-12-23T04:52:55.156Z,7.33
2018-12-23T04:58:13.352Z,7.30
2018-12-23T05:03:34.344Z,7.33
2018-12-23T05:08:51.152Z,7.30
2018-12-23T05:14:10.802Z,7.39
2018-12-23T05:19:29.373Z,7.41
2018-12-23T05:24:48.549Z,7.44
2018-12-23T05:30:06.701Z,7.50
2018-12-23T05:35:25.619Z,7.51
2018-12-23T05:40:45.090Z,7.51
2018-12-23T05:46:04.109Z,7.59
2018-12-23T05:51:23.836Z,7.58
2018-12-23T05:56:43.803Z,7.52
2018-12-23T06:02:02.944Z,7.51
2018-12-23T06:07:26.391Z,7.32
2018-12-23T06:12:47.716Z,7.34
2018-12-23T06:18:06.693Z,7.32
2018-12-23T06:23:26.217Z,7.34
2018-12-23T06:28:45.351Z,7.21
2018-12-23T06:34:03.465Z,7.18
2018-12-23T06:39:21.822Z,7.10
2018-12-23T06:44:40.831Z,7.20
2018-12-23T06:50:01.282Z,7.29
2018-12-23T06:55:19.642Z,7.39
2018-12-23T07:00:38.031Z,7.41
2018-12-23T07:05:56.591Z,7.42
2018-12-23T07:11:15.381Z,7.44
2018-12-23T07:16:33.761Z,7.41
2018-12-23T07:21:52.413Z,7.44
2018-12-23T07:27:10.574Z,7.41
2018-12-23T07:32:29.653Z,7.42
2018-12-23T07:37:48.142Z,7.39
2018-12-23T07:43:06.915Z,7.37
2018-12-23T07:48:25.973Z,7.52
2018-12-23T07:53:47.137Z,7.50
2018-12-23T07:59:05.129Z,7.49
2018-12-23T08:04:24.625Z,7.60
2018-12-23T08:09:42.945Z,7.63
2018-12-23T08:15:01.537Z,7.52
2018-12-23T08:20:20.603Z,7.49
2018-12-23T08:25:40.217Z,7.44
2018-12-23T08:30:58.336Z,7.52
2018-12-23T08:36:17.257Z,7.58
2018-12-23T08:41:36.667Z,7.71
2018-12-23T08:46:55.565Z,7.76
2018-12-23T08:52:15.091Z,7.87
2018-12-23T08:57:35.441Z,7.86
2018-12-23T09:02:54.786Z,7.97
2018-12-23T09:08:13.069Z,7.97
2018-12-23T09:13:32.212Z,8.01
2018-12-23T09:18:50.868Z,8.04
2018-12-23T09:24:09.858Z,8.04
2018-12-23T09:29:28.709Z,8.09
2018-12-23T09:34:47.057Z,8.11
2018-12-23T09:40:05.964Z,8.13
2018-12-23T09:45:25.029Z,8.19
2018-12-23T09:50:44.486Z,8.18
2018-12-23T09:56:06.817Z,8.19
2018-12-23T10:01:25.458Z,8.19
2018-12-23T10:06:44.687Z,8.24
2018-12-23T10:12:03.936Z,8.25
2018-12-23T10:17:22.195Z,8.17
2018-12-23T10:22:40.813Z,8.29
2018-12-23T10:27:59.872Z,8.23
2018-12-23T10:33:19.344Z,8.17
2018-12-23T10:38:38.970Z,7.78
2018-12-23T10:43:58.183Z,7.53
2018-12-23T10:49:17.127Z,7.20
2018-12-23T10:54:36.241Z,6.85
2018-12-23T10:59:53.999Z,6.96
2018-12-23T11:05:13.067Z,6.91
2018-12-23T11:10:32.636Z,6.86
2018-12-23T11:15:51.356Z,6.83
2018-12-23T11:21:10.435Z,6.84
2018-12-23T11:26:29.443Z,6.61
2018-12-23T11:31:50.422Z,6.84
2018-12-23T11:37:09.797Z,6.94
2018-12-23T11:42:29.202Z,6.89
2018-12-23T11:47:47.956Z,7.15
2018-12-23T11:53:06.594Z,7.26
2018-12-23T11:58:25.430Z,7.33
2018-12-23T12:03:45.228Z,7.67
2018-12-23T12:09:14.218Z,7.75
2018-12-23T12:14:33.262Z,7.61
2018-12-23T12:19:54.461Z,7.67
2018-12-23T12:25:13.855Z,7.65
2018-12-23T12:30:32.692Z,7.58
2018-12-23T12:35:51.280Z,7.69
2018-12-23T12:41:10.670Z,7.82
2018-12-23T12:46:30.342Z,8.07
2018-12-23T12:51:49.091Z,8.22
2018-12-23T12:57:07.853Z,8.30
2018-12-23T13:02:27.411Z,8.58
2018-12-23T13:07:45.983Z,8.58
2018-12-23T13:13:06.427Z,8.55
2018-12-23T13:18:25.519Z,8.61
2018-12-23T13:23:44.914Z,8.47
2018-12-23T13:29:04.693Z,8.50
2018-12-23T13:34:22.915Z,8.44
2018-12-23T13:39:42.318Z,8.49
2018-12-23T13:45:35.068Z,8.54
2018-12-23T13:51:40.624Z,8.59
2018-12-23T13:57:34.152Z,8.55
2018-12-23T14:03:40.820Z,8.59
2018-12-23T14:09:34.608Z,8.10
2018-12-23T14:14:53.185Z,8.28
2018-12-23T14:20:12.747Z,8.32
2018-12-23T14:25:33.051Z,8.31
2018-12-23T14:30:52.060Z,8.39
2018-12-23T14:36:13.259Z,8.34
2018-12-23T14:41:35.970Z,8.37
2018-12-23T14:46:51.881Z,8.34
2018-12-23T14:52:11.433Z,8.31
2018-12-23T14:57:30.874Z,8.31
2018-12-23T15:02:49.330Z,8.37
2018-12-23T15:08:08.956Z,8.36
2018-12-23T15:13:28.325Z,8.27
2018-12-23T15:18:47.847Z,8.27
2018-12-23T15:24:06.446Z,8.27
2018-12-23T15:29:28.212Z,8.14
2018-12-23T15:34:47.265Z,8.19
2018-12-23T15:40:06.548Z,7.95
2018-12-23T15:45:26.445Z,7.99
2018-12-23T15:50:45.579Z,8.04
2018-12-23T15:56:05.501Z,8.11
2018-12-23T16:01:24.760Z,8.04
2018-12-23T16:06:43.680Z,7.94
2018-12-23T16:12:03.297Z,7.91
2018-12-23T16:17:22.766Z,8.08
2018-12-23T16:22:43.166Z,8.11
2018-12-23T16:28:02.119Z,8.08
2018-12-23T16:33:21.125Z,8.13
2018-12-23T16:38:41.381Z,8.10
2018-12-23T16:44:00.458Z,7.99
2018-12-23T16:49:19.427Z,7.88
2018-12-23T16:54:39.628Z,7.59
2018-12-23T16:59:58.485Z,7.47
2018-12-23T17:05:18.238Z,7.44
2018-12-23T17:10:37.826Z,7.35
2018-12-23T17:15:56.699Z,7.35
2018-12-23T17:21:15.551Z,7.25
2018-12-23T17:26:34.588Z,7.26
2018-12-23T17:31:54.282Z,7.19
2018-12-23T17:37:13.803Z,7.21
2018-12-23T17:42:32.940Z,7.17
2018-12-23T17:47:51.618Z,7.11
2018-12-23T17:53:11.822Z,7.03
2018-12-23T17:58:30.955Z,6.93
2018-12-23T18:03:50.480Z,6.76
2018-12-23T18:09:10.748Z,6.88
2018-12-23T18:14:30.388Z,6.81
2018-12-23T18:19:49.659Z,6.67
2018-12-23T18:25:08.403Z,6.65
2018-12-23T18:30:28.812Z,6.55
2018-12-23T18:35:48.551Z,6.56
2018-12-23T18:41:07.546Z,6.47
2018-12-23T18:46:26.807Z,6.40
2018-12-23T18:51:46.571Z,6.37
2018-12-23T18:57:09.131Z,6.33
2018-12-23T19:02:36.411Z,6.24
2018-12-23T19:08:01.880Z,6.29
2018-12-23T19:14:10.662Z,6.28
2018-12-23T19:20:25.874Z,6.24
2018-12-23T19:26:36.422Z,6.19
2018-12-23T19:32:39.254Z,6.16
2018-12-23T19:38:25.331Z,6.17
2018-12-23T19:44:22.412Z,6.06
2018-12-23T19:50:27.438Z,6.02
2018-12-23T19:56:29.863Z,6.02
2018-12-23T20:02:20.256Z,6.03
2018-12-23T20:08:48.502Z,6.03
2018-12-23T20:14:33.992Z,6.03
2018-12-23T20:20:33.222Z,6.06
2018-12-23T20:26:21.121Z,6.02
2018-12-23T20:32:14.810Z,5.96
2018-12-23T20:38:13.870Z,5.86
2018-12-23T20:44:13.778Z,5.81
2018-12-23T20:50:10.746Z,5.69
2018-12-23T20:56:06.959Z,5.80
2018-12-23T21:02:03.607Z,5.79
2018-12-23T21:08:03.795Z,5.84
2018-12-23T21:14:00.298Z,5.83
2018-12-23T21:19:59.354Z,5.81
2018-12-23T21:25:48.384Z,5.79
2018-12-23T21:31:55.717Z,5.67
2018-12-23T21:37:55.357Z,5.68
2018-12-23T21:43:30.976Z,5.75
2018-12-23T21:49:35.503Z,5.75
2018-12-23T21:55:24.649Z,5.74
2018-12-23T22:01:15.406Z,5.79
2018-12-23T22:07:19.715Z,5.81
2018-12-23T22:13:25.727Z,5.88
2018-12-23T22:18:44.244Z,5.90
2018-12-23T22:24:02.699Z,5.94
2018-12-23T22:29:22.881Z,5.95
2018-12-23T22:34:41.001Z,5.99
2018-12-23T22:39:59.734Z,6.00
2018-12-23T22:45:19.789Z,5.98
2018-12-23T22:50:37.629Z,5.99
2018-12-23T22:55:56.567Z,6.06
2018-12-23T23:01:15.081Z,5.95
2018-12-23T23:06:33.257Z,5.90
2018-12-23T23:11:51.441Z,5.92
2018-12-23T23:17:11.804Z,5.94
2018-12-23T23:22:30.868Z,5.97
2018-12-23T23:27:49.279Z,6.09
2018-12-23T23:33:07.809Z,6.08
2018-12-23T23:38:26.627Z,6.15
2018-12-23T23:43:45.525Z,6.21
2018-12-23T23:49:04.115Z,6.35
2018-12-23T23:54:22.442Z,6.47
2018-12-23T23:59:41.013Z,6.41
